createdAt,value
2022-08-25T00:02:13.236Z,100717.16
2022-08-25T00:04:40.487Z,100678.44
2022-08-25T00:07:09.371Z,100649.84
2022-08-25T00:09:36.230Z,100639.16
2022-08-25T00:12:04.857Z,100629.69
2022-08-25T00:14:33.824Z,100620.34
2022-08-25T00:17:01.019Z,100600.63
2022-08-25T00:19:29.375Z,100580.94
2022-08-25T00:21:56.516Z,100572.19
2022-08-25T00:24:23.501Z,100567.44
2022-08-25T00:26:51.828Z,100536.03
2022-08-25T00:29:19.132Z,100550.94
2022-08-25T00:31:45.936Z,100577.59
2022-08-25T00:34:16.097Z,100600.97
2022-08-25T00:36:42.931Z,100625.59
2022-08-25T00:39:10.142Z,100620.41
2022-08-25T00:41:37.199Z,100597.88
2022-08-25T00:44:05.241Z,100596.47
2022-08-25T00:46:33.720Z,100554.75
2022-08-25T00:49:02.149Z,100546.22
2022-08-25T00:51:48.926Z,100521.06
2022-08-25T00:54:27.566Z,100552.84
2022-08-25T00:56:55.049Z,100609.72
2022-08-25T00:59:22.627Z,100618.25
2022-08-25T01:01:50.236Z,100603.78
2022-08-25T01:04:17.792Z,100585.19
2022-08-25T01:06:45.394Z,100594.91
2022-08-25T01:09:15.497Z,100596.72
2022-08-25T01:11:42.700Z,100582.13
2022-08-25T01:14:10.671Z,100579.47
2022-08-25T01:16:38.273Z,100583.00
2022-08-25T01:19:05.897Z,100577.06
2022-08-25T01:21:37.902Z,100561.84
2022-08-25T01:24:04.579Z,100569.75
2022-08-25T01:26:33.065Z,100588.91
2022-08-25T01:29:19.330Z,100601.44
2022-08-25T01:31:46.324Z,100616.50
2022-08-25T01:34:13.550Z,100613.28
2022-08-25T01:36:41.291Z,100589.88
2022-08-25T01:39:08.169Z,100588.78
2022-08-25T01:41:34.691Z,100614.25
2022-08-25T01:44:02.209Z,100606.34
2022-08-25T01:46:28.930Z,100600.31
2022-08-25T01:48:55.522Z,100605.84
2022-08-25T01:51:24.592Z,100614.84
2022-08-25T01:53:51.206Z,100609.81
2022-08-25T01:56:17.954Z,100612.03
2022-08-25T01:58:47.102Z,100620.63
2022-08-25T02:01:16.042Z,100618.66
2022-08-25T02:03:45.178Z,100614.78
2022-08-25T02:06:13.907Z,100618.69
2022-08-25T02:08:40.746Z,100607.88
2022-08-25T02:11:12.027Z,100609.72
2022-08-25T02:13:40.556Z,100618.00
2022-08-25T02:16:08.221Z,100618.66
2022-08-25T02:18:34.813Z,100617.41
2022-08-25T02:21:01.493Z,100609.81
2022-08-25T02:23:28.624Z,100605.59
2022-08-25T02:25:57.280Z,100610.13
2022-08-25T02:28:24.133Z,100612.94
2022-08-25T02:30:53.002Z,100613.50
2022-08-25T02:33:25.310Z,100622.97
2022-08-25T02:35:52.043Z,100609.72
2022-08-25T02:38:18.648Z,100610.16
2022-08-25T02:40:45.201Z,100602.56
2022-08-25T02:43:11.777Z,100607.22
2022-08-25T02:45:38.424Z,100599.75
2022-08-25T02:48:05.185Z,100605.50
2022-08-25T02:50:32.277Z,100599.75
2022-08-25T02:52:58.851Z,100596.94
2022-08-25T02:55:25.510Z,100591.84
2022-08-25T02:57:52.042Z,100581.44
2022-08-25T03:00:19.230Z,100592.69
2022-08-25T03:02:46.794Z,100584.56
2022-08-25T03:05:14.552Z,100579.06
2022-08-25T03:07:41.280Z,100579.91
2022-08-25T03:10:10.562Z,100582.72
2022-08-25T03:12:37.163Z,100576.25
2022-08-25T03:15:04.286Z,100578.69
2022-08-25T03:17:36.104Z,100580.91
2022-08-25T03:20:04.127Z,100580.59
2022-08-25T03:22:32.410Z,100579.19
2022-08-25T03:25:23.891Z,100576.41
2022-08-25T03:27:51.725Z,100581.72
2022-08-25T03:30:18.322Z,100587.22
2022-08-25T03:32:45.052Z,100598.47
2022-08-25T03:35:11.697Z,100595.81
2022-08-25T03:37:38.303Z,100594.13
2022-08-25T03:40:06.207Z,100590.72
2022-08-25T03:42:32.813Z,100592.13
2022-08-25T03:44:59.478Z,100592.69
2022-08-25T03:47:26.575Z,100601.16
2022-08-25T03:49:53.142Z,100588.91
2022-08-25T03:52:19.716Z,100586.78
2022-08-25T03:54:46.259Z,100596.63
2022-08-25T03:57:13.206Z,100594.69
2022-08-25T03:59:39.824Z,100589.63
2022-08-25T04:02:07.163Z,100597.19
2022-08-25T04:04:33.749Z,100593.28
2022-08-25T04:07:00.318Z,100601.16
2022-08-25T04:09:27.222Z,100596.94
2022-08-25T04:11:57.494Z,100597.47
2022-08-25T04:14:24.046Z,100599.59
2022-08-25T04:16:50.829Z,100617.47
2022-08-25T04:19:17.462Z,100620.00
2022-08-25T04:21:44.235Z,100617.47
2022-08-25T04:24:12.403Z,100619.00
2022-08-25T04:26:41.408Z,100618.47
2022-08-25T04:29:10.193Z,100627.47
2022-08-25T04:31:39.116Z,100633.34
2022-08-25T04:34:20.033Z,100638.81
2022-08-25T04:36:52.961Z,100642.91
2022-08-25T04:39:20.800Z,100652.63
2022-08-25T04:41:47.998Z,100645.56
2022-08-25T04:44:14.980Z,100666.09
2022-08-25T04:46:41.558Z,100673.75
2022-08-25T04:49:08.147Z,100679.38
2022-08-25T04:51:36.618Z,100676.69
2022-08-25T04:54:05.569Z,100684.81
2022-08-25T04:56:35.247Z,100692.28
2022-08-25T04:59:03.304Z,100691.31
2022-08-25T05:01:29.977Z,100697.59
2022-08-25T05:03:57.847Z,100692.53
2022-08-25T05:06:24.505Z,100695.34
2022-08-25T05:08:51.600Z,100699.25
2022-08-25T05:11:19.170Z,100695.44
2022-08-25T05:13:51.660Z,100693.94
2022-08-25T05:16:19.131Z,100690.72
2022-08-25T05:18:45.776Z,100692.97
2022-08-25T05:21:17.014Z,100698.31
2022-08-25T05:23:43.788Z,100697.19
2022-08-25T05:26:13.008Z,100703.53
2022-08-25T05:28:42.353Z,100699.47
2022-08-25T05:31:10.383Z,100698.88
2022-08-25T05:33:37.934Z,100706.47
2022-08-25T05:36:05.246Z,100700.75
2022-08-25T05:38:31.872Z,100703.78
2022-08-25T05:40:59.842Z,100700.41
2022-08-25T05:43:26.525Z,100701.25
2022-08-25T05:45:56.683Z,100709.69
2022-08-25T05:48:23.643Z,100713.06
2022-08-25T05:50:54.007Z,100707.69
2022-08-25T05:53:21.281Z,100698.31
2022-08-25T05:55:47.831Z,100700.13
2022-08-25T05:58:14.431Z,100711.66
2022-08-25T06:00:41.564Z,100712.91
2022-08-25T06:03:08.265Z,100718.25
2022-08-25T06:05:34.951Z,100720.09
2022-08-25T06:08:01.592Z,100742.44
2022-08-25T06:10:28.412Z,100736.56
2022-08-25T06:12:54.975Z,100745.66
2022-08-25T06:15:24.913Z,100750.44
2022-08-25T06:17:52.180Z,100747.91
2022-08-25T06:20:25.470Z,100752.81
2022-08-25T06:22:52.762Z,100750.47
2022-08-25T06:25:21.354Z,100752.16
2022-08-25T06:27:48.019Z,100755.94
2022-08-25T06:30:19.359Z,100759.63
2022-08-25T06:32:51.031Z,100761.44
2022-08-25T06:35:19.608Z,100767.38
2022-08-25T06:37:46.778Z,100778.31
2022-08-25T06:40:14.853Z,100768.94
2022-08-25T06:42:41.520Z,100770.31
2022-08-25T06:45:08.549Z,100757.41
2022-08-25T06:47:35.128Z,100764.72
2022-08-25T06:50:03.854Z,100756.03
2022-08-25T06:52:30.734Z,100758.41
2022-08-25T06:54:57.603Z,100743.78
2022-08-25T06:57:24.257Z,100743.50
2022-08-25T06:59:53.585Z,100755.31
2022-08-25T07:02:22.292Z,100746.63
2022-08-25T07:04:49.600Z,100746.63
2022-08-25T07:07:16.166Z,100741.56
2022-08-25T07:09:43.133Z,100749.13
2022-08-25T07:12:10.066Z,100753.06
2022-08-25T07:14:37.068Z,100756.59
2022-08-25T07:17:10.486Z,100762.94
2022-08-25T07:19:39.100Z,100767.28
2022-08-25T07:22:07.651Z,100770.22
2022-08-25T07:24:35.985Z,100773.75
2022-08-25T07:27:02.574Z,100770.22
2022-08-25T07:29:32.539Z,100769.38
2022-08-25T07:32:03.203Z,100770.22
2022-08-25T07:34:52.451Z,100776.03
2022-08-25T07:37:38.407Z,100780.09
2022-08-25T07:40:07.436Z,100779.53
2022-08-25T07:42:34.094Z,100781.63
2022-08-25T07:45:00.643Z,100784.47
2022-08-25T07:47:27.226Z,100794.31
2022-08-25T07:49:53.808Z,100803.75
2022-08-25T07:52:21.351Z,100810.91
2022-08-25T07:54:47.999Z,100809.22
2022-08-25T07:57:14.616Z,100815.41
2022-08-25T07:59:41.998Z,100822.19
2022-08-25T08:02:18.349Z,100824.72
2022-08-25T08:04:46.368Z,100835.13
2022-08-25T08:07:12.947Z,100822.59
2022-08-25T08:09:39.497Z,100819.91
2022-08-25T08:12:06.856Z,100830.22
2022-08-25T08:14:34.623Z,100831.59
2022-08-25T08:17:05.607Z,100835.13
2022-08-25T08:19:32.667Z,100837.81
2022-08-25T08:22:02.227Z,100839.25
2022-08-25T08:24:44.359Z,100834.19
2022-08-25T08:27:16.331Z,100831.78
2022-08-25T08:29:46.057Z,100822.63
2022-08-25T08:32:13.593Z,100821.91
2022-08-25T08:34:41.605Z,100828.78
2022-08-25T08:37:10.386Z,100839.19
2022-08-25T08:39:38.098Z,100838.91
2022-08-25T08:42:17.174Z,100846.25
2022-08-25T08:44:44.258Z,100853.03
2022-08-25T08:47:17.264Z,100849.38
2022-08-25T08:49:56.750Z,100857.81
2022-08-25T08:52:28.621Z,100857.53
2022-08-25T08:55:01.148Z,100864.81
2022-08-25T08:57:29.228Z,100863.56
2022-08-25T09:00:00.760Z,100874.44
2022-08-25T09:02:39.364Z,100884.41
2022-08-25T09:05:20.050Z,100885.41
2022-08-25T09:07:48.458Z,100880.88
2022-08-25T09:10:23.067Z,100887.94
2022-08-25T09:13:12.753Z,100894.72
2022-08-25T09:16:03.646Z,100899.19
2022-08-25T09:18:51.529Z,100909.47
2022-08-25T09:21:31.157Z,100903.72
2022-08-25T09:24:06.907Z,100905.69
2022-08-25T09:26:39.140Z,100905.13
2022-08-25T09:29:16.331Z,100899.03
2022-08-25T09:31:43.788Z,100901.34
2022-08-25T09:34:17.350Z,100901.59
2022-08-25T09:36:47.491Z,100897.22
2022-08-25T09:39:16.639Z,100884.41
2022-08-25T09:41:59.271Z,100874.84
2022-08-25T09:44:29.246Z,100878.63
2022-08-25T09:47:04.519Z,100870.59
2022-08-25T09:49:32.613Z,100872.53
2022-08-25T09:52:16.628Z,100876.19
2022-08-25T09:54:47.021Z,100876.88
2022-08-25T09:57:33.239Z,100880.56
2022-08-25T10:00:20.074Z,100887.38
2022-08-25T10:03:05.649Z,100895.81
2022-08-25T10:05:35.739Z,100890.25
2022-08-25T10:08:04.073Z,100894.31
2022-08-25T10:10:36.322Z,100890.69
2022-08-25T10:13:06.185Z,100888.88
2022-08-25T10:15:36.041Z,100885.63
2022-08-25T10:18:21.617Z,100890.69
2022-08-25T10:21:11.345Z,100891.84
2022-08-25T10:23:49.897Z,100891.78
2022-08-25T10:26:35.545Z,100883.91
2022-08-25T10:29:02.135Z,100877.72
2022-08-25T10:31:38.031Z,100868.16
2022-08-25T10:34:19.694Z,100865.03
2022-08-25T10:37:02.197Z,100861.31
2022-08-25T10:39:40.657Z,100854.53
2022-08-25T10:42:25.816Z,100847.75
2022-08-25T10:45:21.908Z,100843.91
2022-08-25T10:47:48.698Z,100853.28
2022-08-25T10:50:24.383Z,100846.19
2022-08-25T10:53:01.342Z,100831.38
2022-08-25T10:55:50.348Z,100838.66
2022-08-25T10:58:17.343Z,100835.19
2022-08-25T11:00:49.781Z,100828.72
2022-08-25T11:03:40.276Z,100818.59
2022-08-25T11:06:12.538Z,100821.56
2022-08-25T11:08:52.336Z,100818.16
2022-08-25T11:11:32.985Z,100816.59
2022-08-25T11:14:09.231Z,100819.25
2022-08-25T11:16:48.390Z,100812.53
2022-08-25T11:19:21.184Z,100816.50
2022-08-25T11:21:51.158Z,100809.72
2022-08-25T11:24:30.057Z,100798.56
2022-08-25T11:26:58.662Z,100802.72
2022-08-25T11:29:31.914Z,100798.19
2022-08-25T11:31:59.542Z,100786.44
2022-08-25T11:34:30.687Z,100780.59
2022-08-25T11:37:01.370Z,100780.97
2022-08-25T11:39:34.406Z,100776.09
2022-08-25T11:42:20.169Z,100774.69
2022-08-25T11:44:53.671Z,100770.44
2022-08-25T11:47:21.498Z,100775.00
2022-08-25T11:49:51.189Z,100769.56
2022-08-25T11:52:33.184Z,100768.72
2022-08-25T11:55:11.027Z,100766.44
2022-08-25T11:57:38.203Z,100775.47
2022-08-25T12:00:20.705Z,100770.50
2022-08-25T12:02:48.297Z,100776.50
2022-08-25T12:05:22.168Z,100770.97
2022-08-25T12:08:15.095Z,100780.00
2022-08-25T12:10:59.016Z,100775.25
2022-08-25T12:13:25.723Z,100786.38
2022-08-25T12:15:52.249Z,100794.88
2022-08-25T12:18:22.015Z,100782.75
2022-08-25T12:20:57.965Z,100800.88
2022-08-25T12:23:39.803Z,100795.16
2022-08-25T12:26:11.281Z,100791.72
2022-08-25T12:28:37.814Z,100799.06
2022-08-25T12:31:10.364Z,100798.72
2022-08-25T12:33:36.916Z,100793.19
2022-08-25T12:36:05.127Z,100794.88
2022-08-25T12:38:37.817Z,100786.47
2022-08-25T12:41:10.003Z,100789.69
2022-08-25T12:43:42.088Z,100795.19
2022-08-25T12:46:21.306Z,100783.81
2022-08-25T12:48:55.418Z,100795.06
2022-08-25T12:51:23.947Z,100791.06
2022-08-25T12:53:53.435Z,100792.91
2022-08-25T12:56:19.973Z,100790.72
2022-08-25T12:59:03.835Z,100790.81
2022-08-25T13:01:49.345Z,100789.66
2022-08-25T13:04:39.009Z,100788.34
2022-08-25T13:07:34.285Z,100789.69
2022-08-25T13:10:10.999Z,100789.44
2022-08-25T13:12:43.439Z,100785.75
2022-08-25T13:15:30.339Z,100784.25
2022-08-25T13:18:15.470Z,100785.09
2022-08-25T13:20:44.249Z,100783.44
2022-08-25T13:23:16.644Z,100777.16
2022-08-25T13:25:51.141Z,100775.97
2022-08-25T13:28:29.749Z,100781.75
2022-08-25T13:31:02.123Z,100777.69
2022-08-25T13:33:29.158Z,100776.63
2022-08-25T13:36:16.850Z,100773.09
2022-08-25T13:38:46.569Z,100768.44
2022-08-25T13:41:17.938Z,100768.03
2022-08-25T13:43:44.818Z,100771.41
2022-08-25T13:46:12.510Z,100763.91
2022-08-25T13:48:49.644Z,100757.81
2022-08-25T13:51:19.581Z,100759.09
2022-08-25T13:53:52.507Z,100749.28
2022-08-25T13:56:46.866Z,100742.84
2022-08-25T13:59:25.866Z,100739.09
2022-08-25T14:01:54.204Z,100740.19
2022-08-25T14:04:26.878Z,100730.13
2022-08-25T14:07:05.810Z,100731.59
2022-08-25T14:09:39.057Z,100726.91
2022-08-25T14:12:08.194Z,100713.50
2022-08-25T14:14:36.113Z,100700.34
2022-08-25T14:17:21.967Z,100707.91
2022-08-25T14:19:55.427Z,100690.88
2022-08-25T14:22:22.182Z,100691.72
2022-08-25T14:24:49.102Z,100682.34
2022-08-25T14:27:16.583Z,100685.53
2022-08-25T14:29:43.470Z,100676.41
2022-08-25T14:32:10.970Z,100676.41
2022-08-25T14:34:39.439Z,100671.31
2022-08-25T14:37:26.417Z,100662.28
2022-08-25T14:39:54.895Z,100667.06
2022-08-25T14:42:22.807Z,100678.94
2022-08-25T14:44:52.062Z,100668.63
2022-08-25T14:47:20.656Z,100671.16
2022-08-25T14:49:48.848Z,100666.50
2022-08-25T14:52:22.721Z,100664.28
2022-08-25T14:54:49.422Z,100658.66
2022-08-25T14:57:16.148Z,100659.66
2022-08-25T14:59:43.513Z,100660.09
2022-08-25T15:02:13.158Z,100666.63
2022-08-25T15:04:39.967Z,100666.22
2022-08-25T15:07:34.393Z,100666.25
2022-08-25T15:10:01.061Z,100668.63
2022-08-25T15:12:46.975Z,100679.56
2022-08-25T15:15:14.567Z,100682.56
2022-08-25T15:17:42.089Z,100685.25
2022-08-25T15:20:11.858Z,100685.63
2022-08-25T15:22:38.507Z,100695.50
2022-08-25T15:25:05.445Z,100695.63
2022-08-25T15:27:34.196Z,100709.44
2022-08-25T15:30:00.779Z,100701.09
2022-08-25T15:32:27.849Z,100701.59
2022-08-25T15:34:54.640Z,100709.13
2022-08-25T15:37:21.248Z,100704.47
2022-08-25T15:39:49.008Z,100704.38
2022-08-25T15:42:16.751Z,100699.75
2022-08-25T15:44:53.479Z,100707.19
2022-08-25T15:47:20.604Z,100707.66
2022-08-25T15:49:47.330Z,100702.94
2022-08-25T15:52:13.966Z,100711.81
2022-08-25T15:54:41.041Z,100695.44
2022-08-25T15:57:09.152Z,100696.25
2022-08-25T15:59:40.268Z,100691.53
2022-08-25T16:02:15.101Z,100696.22
2022-08-25T16:04:42.134Z,100700.34
2022-08-25T16:07:09.601Z,100705.22
2022-08-25T16:09:40.504Z,100704.16
2022-08-25T16:12:08.607Z,100702.44
2022-08-25T16:14:35.638Z,100708.72
2022-08-25T16:17:02.280Z,100717.06
2022-08-25T16:19:29.210Z,100715.88
2022-08-25T16:21:56.119Z,100736.34
2022-08-25T16:24:22.840Z,100740.53
2022-08-25T16:26:50.306Z,100738.72
2022-08-25T16:29:18.586Z,100736.16
2022-08-25T16:31:52.915Z,100744.06
2022-08-25T16:34:20.281Z,100759.16
2022-08-25T16:36:47.065Z,100766.69
2022-08-25T16:39:13.876Z,100778.53
2022-08-25T16:41:40.684Z,100790.72
2022-08-25T16:44:11.206Z,100795.03
2022-08-25T16:46:38.538Z,100810.72
2022-08-25T16:49:07.838Z,100813.94
2022-08-25T16:51:34.446Z,100815.94
2022-08-25T16:54:22.136Z,100810.03
2022-08-25T16:56:54.712Z,100805.97
2022-08-25T16:59:21.776Z,100808.94
2022-08-25T17:01:50.897Z,100802.44
2022-08-25T17:04:17.515Z,100792.56
2022-08-25T17:06:49.387Z,100774.50
2022-08-25T17:09:22.910Z,100760.19
2022-08-25T17:11:54.419Z,100748.00
2022-08-25T17:14:21.527Z,100739.41
2022-08-25T17:16:50.643Z,100753.44
2022-08-25T17:19:17.578Z,100767.75
2022-08-25T17:21:46.272Z,100778.53
2022-08-25T17:24:13.788Z,100777.69
2022-08-25T17:26:41.727Z,100768.66
2022-08-25T17:29:09.398Z,100755.59
2022-08-25T17:31:40.055Z,100757.72
2022-08-25T17:34:10.668Z,100763.53
2022-08-25T17:36:37.820Z,100769.75
2022-08-25T17:39:07.719Z,100769.88
2022-08-25T17:41:34.359Z,100767.38
2022-08-25T17:44:04.900Z,100762.31
2022-08-25T17:46:31.608Z,100763.13
2022-08-25T17:48:58.294Z,100759.22
2022-08-25T17:51:25.029Z,100753.88
2022-08-25T17:53:53.049Z,100760.06
2022-08-25T17:56:21.537Z,100775.28
2022-08-25T17:58:48.452Z,100787.28
2022-08-25T18:01:40.864Z,100796.47
2022-08-25T18:04:14.291Z,100793.66
2022-08-25T18:06:45.017Z,100784.63
2022-08-25T18:09:11.726Z,100785.63
2022-08-25T18:11:38.307Z,100782.94
2022-08-25T18:14:05.703Z,100776.88
2022-08-25T18:16:32.514Z,100785.22
2022-08-25T18:19:00.778Z,100794.25
2022-08-25T18:21:30.611Z,100801.19
2022-08-25T18:23:57.616Z,100806.13
2022-08-25T18:26:25.588Z,100803.28
2022-08-25T18:28:52.230Z,100817.34
2022-08-25T18:31:19.768Z,100826.41
2022-08-25T18:33:46.662Z,100822.88
2022-08-25T18:36:13.534Z,100825.38
2022-08-25T18:38:59.643Z,100819.06
2022-08-25T18:41:27.608Z,100829.09
2022-08-25T18:43:54.427Z,100838.25
2022-08-25T18:46:22.634Z,100826.41
2022-08-25T18:48:49.822Z,100827.97
2022-08-25T18:51:22.862Z,100831.09
2022-08-25T18:53:51.175Z,100838.56
2022-08-25T18:56:21.869Z,100830.28
2022-08-25T18:58:48.543Z,100822.13
2022-08-25T19:01:16.213Z,100823.13
2022-08-25T19:03:44.947Z,100818.63
2022-08-25T19:06:11.613Z,100805.00
2022-08-25T19:08:41.820Z,100799.81
2022-08-25T19:11:09.911Z,100801.78
2022-08-25T19:13:37.035Z,100800.09
2022-08-25T19:16:17.774Z,100808.38
2022-08-25T19:18:47.157Z,100807.97
2022-08-25T19:21:13.876Z,100812.59
2022-08-25T19:23:40.492Z,100815.81
2022-08-25T19:26:17.002Z,100813.00
2022-08-25T19:28:45.514Z,100817.25
2022-08-25T19:31:12.772Z,100818.56
2022-08-25T19:33:44.094Z,100831.50
2022-08-25T19:36:12.066Z,100840.31
2022-08-25T19:38:39.486Z,100845.91
2022-08-25T19:41:10.412Z,100843.97
2022-08-25T19:43:55.735Z,100867.03
2022-08-25T19:46:32.076Z,100841.88
2022-08-25T19:49:04.865Z,100853.22
2022-08-25T19:51:34.542Z,100842.88
2022-08-25T19:54:02.838Z,100849.09
2022-08-25T19:56:30.100Z,100853.94
2022-08-25T19:58:57.330Z,100858.28
2022-08-25T20:01:24.487Z,100847.03
2022-08-25T20:03:52.220Z,100862.97
2022-08-25T20:06:18.853Z,100859.56
2022-08-25T20:08:45.397Z,100869.38
2022-08-25T20:11:12.092Z,100855.50
2022-08-25T20:13:38.711Z,100861.00
2022-08-25T20:16:05.649Z,100863.69
2022-08-25T20:18:32.414Z,100871.78
2022-08-25T20:20:59.007Z,100873.41
2022-08-25T20:23:44.389Z,100873.59
2022-08-25T20:26:10.966Z,100878.72
2022-08-25T20:28:37.817Z,100872.47
2022-08-25T20:31:04.447Z,100873.13
2022-08-25T20:33:32.929Z,100868.31
2022-08-25T20:35:59.590Z,100866.44
2022-08-25T20:38:29.844Z,100865.97
2022-08-25T20:40:56.524Z,100876.25
2022-08-25T20:43:24.129Z,100869.63
2022-08-25T20:45:59.249Z,100864.19
2022-08-25T20:48:27.668Z,100867.31
2022-08-25T20:50:57.626Z,100858.34
2022-08-25T20:53:25.084Z,100864.91
2022-08-25T20:55:51.963Z,100859.72
2022-08-25T20:58:18.930Z,100866.84
2022-08-25T21:00:45.925Z,100866.13
2022-08-25T21:03:12.729Z,100860.19
2022-08-25T21:05:40.444Z,100858.78
2022-08-25T21:08:08.132Z,100855.25
2022-08-25T21:10:34.989Z,100858.69
2022-08-25T21:13:01.608Z,100868.50
2022-08-25T21:15:28.316Z,100874.75
2022-08-25T21:17:55.653Z,100870.53
2022-08-25T21:20:23.923Z,100875.72
2022-08-25T21:22:51.059Z,100859.72
2022-08-25T21:25:20.140Z,100864.53
2022-08-25T21:27:47.948Z,100864.19
2022-08-25T21:30:15.827Z,100869.16
2022-08-25T21:32:53.726Z,100852.97
2022-08-25T21:35:21.233Z,100851.56
2022-08-25T21:37:49.296Z,100846.75
2022-08-25T21:40:21.022Z,100853.28
2022-08-25T21:42:48.783Z,100833.88
2022-08-25T21:45:15.531Z,100848.44
2022-08-25T21:47:42.789Z,100850.31
2022-08-25T21:50:10.953Z,100848.22
2022-08-25T21:52:37.560Z,100833.03
2022-08-25T21:55:04.616Z,100838.97
2022-08-25T21:57:31.800Z,100823.84
2022-08-25T21:59:58.430Z,100826.84
2022-08-25T22:02:25.546Z,100823.00
2022-08-25T22:04:53.614Z,100823.41
2022-08-25T22:07:21.325Z,100827.16
2022-08-25T22:09:48.282Z,100803.44
2022-08-25T22:12:18.142Z,100801.34
2022-08-25T22:14:45.329Z,100797.34
2022-08-25T22:17:16.968Z,100791.75
2022-08-25T22:19:43.772Z,100780.47
2022-08-25T22:22:10.346Z,100778.69
2022-08-25T22:24:37.025Z,100779.19
2022-08-25T22:27:03.588Z,100774.25
2022-08-25T22:29:42.262Z,100754.75
2022-08-25T22:32:08.850Z,100745.81
2022-08-25T22:34:35.511Z,100741.09
2022-08-25T22:37:06.849Z,100722.03
2022-08-25T22:39:35.048Z,100711.47
2022-08-25T22:42:02.546Z,100713.47
2022-08-25T22:44:29.157Z,100705.81
2022-08-25T22:46:55.776Z,100703.19
2022-08-25T22:49:22.612Z,100701.00
2022-08-25T22:51:49.849Z,100701.94
2022-08-25T22:54:17.473Z,100702.19
2022-08-25T22:56:44.184Z,100702.53
2022-08-25T22:59:12.154Z,100698.03
2022-08-25T23:01:39.611Z,100695.16
2022-08-25T23:04:07.274Z,100692.13
2022-08-25T23:06:34.602Z,100696.38
2022-08-25T23:09:01.915Z,100696.00
2022-08-25T23:11:29.056Z,100695.88
2022-08-25T23:13:56.936Z,100694.78
2022-08-25T23:16:23.716Z,100686.41
2022-08-25T23:18:51.285Z,100687.63
2022-08-25T23:21:40.879Z,100692.94
2022-08-25T23:24:08.401Z,100694.53
2022-08-25T23:26:34.955Z,100693.31
2022-08-25T23:29:03.199Z,100698.72
2022-08-25T23:31:40.810Z,100695.31
2022-08-25T23:34:08.187Z,100695.31
2022-08-25T23:36:34.979Z,100687.50
2022-08-25T23:39:02.240Z,100676.47
2022-08-25T23:41:29.002Z,100673.59
2022-08-25T23:43:55.936Z,100681.00
2022-08-25T23:46:23.545Z,100676.47
2022-08-25T23:48:50.934Z,100666.72
2022-08-25T23:51:23.873Z,100673.06
2022-08-25T23:53:50.773Z,100675.81
2022-08-25T23:56:17.457Z,100674.78
2022-08-25T23:58:44.049Z,100668.06
